Chapleau Airport
CYLD : now visible

Airfield :











YOU CAN JOIN US ON...

 
LOGIN :

Register | Disclaimer

   EN    FR    IT 

 









Legend :    VFR   Marginal VFR   IFR   Intensive IFR   Very Intensive IFR
Visi :
Ceiling :
>= 8 km
>= 3000ft
5 to 8 km
1000 to 3000 ft
1500m to 5 km
500 to 1000 ft
800 to 1500m
200 to 500 ft
< 800m
< 200 ft
Symbols :   Thunderstorms  Fog  Heavy snow  Heavy precipitations  Wind > 20 kt






- Airport Elevation : 1470 ft
- IATA code : YLD


CYLD - Chapleau

CURRENT METAR :
  • 191800Z 20006KT 15SM -SHRA BKN027 BKN038 22/19 A2992 RMK SC5SC2 CVCTV CLD EMBD SLP137 DENSITY ALT 2700FT

EXPIRED METARs :
  • 191737Z 23005KT 15SM -SHRA BKN029 BKN038 BKN120 BKN270 22/19 A2992 RMK SC5SC1AC1CI1 CI TR CVCTV CLD EMBD SLP137 DENSITY ALT 2700FT
  • 191715Z 22006KT 200V360 15SM SCT024 BKN039 BKN270 22/19 A2992 RMK SC3SC2CI1 CVCTV CLDS EMBD SLP137 DENSITY ALT 2700FT
  • 191700Z 25006G16KT 200V270 15SM -SHRA BKN023 BKN055 21/18 A2992 RMK SC5SC2 CVCTV CLDS EMBD SLP140 DENSITY ALT 2500FT
  • 191643Z 23008KT 180V290 15SM -SHRA BKN039 BKN110 24/18 A2992 RMK SC5AC2 TCU ASOCTD SLP138 DENSITY ALT 2900FT
  • 191600Z 22008KT 15SM BKN017 BKN032 21/17 A2993 RMK SC5SC2 SLP142 DENSITY ALT 2500FT

TAF TAF CYLD
Valid from the 19 at 14:00 until the 20 at 01:00 UTC


191340Z 1914/2001 22008KT P6SM OVC015
TEMPO 1914/1916 SCT015 OVC025
FM191600 25010KT P6SM BKN030
TEMPO 1916/2001 5SM -SHRA BR BKN020
PROB30 1917/1922 2SM TSRA BR BKN020 OVC030CB RMK NXT FCST BY 192000Z
CZYZ FIR / North America



MET'MAP, your aeronautical weather chart ! - Copyright ORBIFLY December 2007 - Disclaimer

ORBIFLY MET'MAP TEAM :

Programming & Development : Alexandra Zaïnal
Original concept : Baudouin d'Aumeries
Technical & hardware support : Manuel Goepfert
Assistance : Marc-Olivier Méhu




SOURCES & CREDITS :

   NOAA       Earth
Advisory